createdAt,value
2018-11-01T00:01:53.426Z,8.70
2018-11-01T00:04:21.789Z,8.27
2018-11-01T00:06:50.183Z,7.90
2018-11-01T00:09:18.551Z,8.10
2018-11-01T00:11:46.942Z,8.80
2018-11-01T00:14:15.314Z,8.37
2018-11-01T00:16:43.720Z,9.30
2018-11-01T00:19:12.091Z,8.50
2018-11-01T00:21:40.483Z,8.67
2018-11-01T00:24:08.862Z,9.57
2018-11-01T00:26:37.261Z,8.33
2018-11-01T00:29:05.877Z,9.60
2018-11-01T00:31:34.287Z,8.30
2018-11-01T00:34:02.687Z,8.70
2018-11-01T00:36:31.062Z,9.13
2018-11-01T00:38:59.598Z,8.90
2018-11-01T00:41:27.970Z,9.00
2018-11-01T00:43:56.365Z,9.43
2018-11-01T00:46:24.738Z,8.97
2018-11-01T00:48:53.126Z,9.50
2018-11-01T00:51:21.501Z,8.97
2018-11-01T00:53:49.894Z,9.80
2018-11-01T00:56:18.266Z,9.47
2018-11-01T00:58:46.676Z,8.73
2018-11-01T01:01:15.065Z,9.67
2018-11-01T01:03:43.467Z,8.60
2018-11-01T01:06:11.849Z,9.23
2018-11-01T01:08:40.243Z,8.87
2018-11-01T01:11:08.614Z,8.80
2018-11-01T01:13:37.078Z,8.37
2018-11-01T01:16:05.722Z,8.43
2018-11-01T01:18:34.118Z,8.20
2018-11-01T01:21:02.486Z,8.37
2018-11-01T01:23:30.882Z,8.03
2018-11-01T01:25:59.253Z,9.30
2018-11-01T01:28:27.641Z,9.90
2018-11-01T01:30:56.010Z,8.50
2018-11-01T01:33:24.432Z,7.00
2018-11-01T01:35:52.799Z,8.23
2018-11-01T01:38:21.193Z,8.77
2018-11-01T01:40:49.554Z,8.57
2018-11-01T01:43:17.950Z,8.17
2018-11-01T01:45:46.424Z,10.00
2018-11-01T01:48:14.814Z,10.13
2018-11-01T01:50:43.218Z,10.50
2018-11-01T01:53:11.598Z,10.80
2018-11-01T01:55:39.974Z,10.20
2018-11-01T01:58:08.374Z,11.63
2018-11-01T02:00:36.741Z,9.83
2018-11-01T02:03:05.270Z,10.77
2018-11-01T02:05:33.643Z,10.70
2018-11-01T02:08:02.039Z,10.10
2018-11-01T02:10:30.409Z,9.03
2018-11-01T02:12:58.808Z,8.57
2018-11-01T02:15:27.190Z,9.50
2018-11-01T02:17:55.612Z,10.63
2018-11-01T02:20:23.987Z,11.27
2018-11-01T02:22:52.358Z,11.50
2018-11-01T02:25:20.745Z,11.10
2018-11-01T02:27:54.491Z,11.47
2018-11-01T02:30:22.879Z,10.93
2018-11-01T02:32:51.270Z,11.43
2018-11-01T02:35:20.207Z,11.33
2018-11-01T02:37:48.691Z,11.13
2018-11-01T02:40:17.465Z,12.73
2018-11-01T02:42:45.836Z,10.57
2018-11-01T02:45:14.950Z,12.03
2018-11-01T02:47:43.318Z,11.97
2018-11-01T02:50:12.531Z,10.90
2018-11-01T02:52:41.090Z,10.27
2018-11-01T02:55:10.104Z,9.10
2018-11-01T02:57:38.492Z,10.97
2018-11-01T03:00:13.209Z,13.10
2018-11-01T03:02:41.612Z,10.13
2018-11-01T03:05:10.790Z,11.33
2018-11-01T03:07:39.190Z,11.07
2018-11-01T03:10:09.046Z,11.47
2018-11-01T03:12:37.446Z,11.00
2018-11-01T03:15:07.150Z,11.87
2018-11-01T03:17:35.532Z,10.53
2018-11-01T03:20:03.918Z,12.03
2018-11-01T03:22:32.291Z,11.33
2018-11-01T03:25:00.682Z,10.53
2018-11-01T03:27:29.062Z,10.17
2018-11-01T03:29:57.454Z,10.50
2018-11-01T03:32:25.885Z,11.47
2018-11-01T03:34:54.276Z,10.50
2018-11-01T03:37:22.651Z,10.87
2018-11-01T03:39:51.184Z,11.03
2018-11-01T03:42:19.558Z,10.97
2018-11-01T03:44:47.949Z,10.43
2018-11-01T03:47:16.326Z,10.80
2018-11-01T03:49:44.739Z,10.50
2018-11-01T03:52:13.144Z,12.27
2018-11-01T03:54:41.554Z,11.90
2018-11-01T03:57:10.018Z,11.80
2018-11-01T03:59:38.416Z,11.33
2018-11-01T04:02:06.803Z,12.83
2018-11-01T04:04:35.195Z,13.37
2018-11-01T04:07:03.570Z,13.23
2018-11-01T04:09:31.976Z,12.40
2018-11-01T04:12:00.350Z,14.00
2018-11-01T04:14:28.719Z,14.07
2018-11-01T04:16:57.214Z,12.07
2018-11-01T04:19:25.512Z,14.63
2018-11-01T04:22:02.235Z,15.60
2018-11-01T04:24:30.619Z,12.97
2018-11-01T04:26:59.017Z,15.50
2018-11-01T04:29:27.390Z,15.00
2018-11-01T04:31:55.785Z,14.33
2018-11-01T04:34:24.179Z,12.80
2018-11-01T04:36:52.586Z,13.27
2018-11-01T04:39:20.964Z,13.10
2018-11-01T04:41:49.368Z,11.93
2018-11-01T04:44:17.759Z,11.53
2018-11-01T04:46:46.176Z,11.10
2018-11-01T04:49:14.563Z,10.93
2018-11-01T04:51:42.958Z,12.20
2018-11-01T04:54:11.326Z,11.47
2018-11-01T04:56:39.735Z,11.83
2018-11-01T04:59:08.109Z,12.87
2018-11-01T05:01:36.502Z,13.40
2018-11-01T05:04:05.213Z,14.23
2018-11-01T05:06:33.615Z,14.20
2018-11-01T05:09:02.009Z,13.37
2018-11-01T05:11:30.407Z,13.73
2018-11-01T05:13:58.783Z,15.73
2018-11-01T05:16:27.179Z,16.50
2018-11-01T05:18:55.555Z,16.07
2018-11-01T05:21:23.956Z,15.77
2018-11-01T05:23:52.330Z,15.27
2018-11-01T05:26:20.735Z,16.90
2018-11-01T05:28:49.118Z,15.97
2018-11-01T05:31:17.595Z,16.30
2018-11-01T05:33:45.982Z,17.67
2018-11-01T05:36:14.378Z,18.17
2018-11-01T05:38:42.785Z,16.80
2018-11-01T05:41:11.191Z,17.33
2018-11-01T05:43:39.564Z,16.87
2018-11-01T05:46:07.958Z,16.93
2018-11-01T05:48:36.335Z,18.10
2018-11-01T05:51:04.735Z,16.43
2018-11-01T05:53:33.126Z,16.20
2018-11-01T05:56:01.532Z,16.87
2018-11-01T05:58:29.917Z,18.07
2018-11-01T06:00:58.357Z,18.00
2018-11-01T06:03:26.733Z,16.87
2018-11-01T06:05:55.127Z,14.80
2018-11-01T06:08:27.480Z,17.60
2018-11-01T06:10:55.895Z,15.27
2018-11-01T06:13:24.307Z,16.17
2018-11-01T06:15:52.679Z,15.13
2018-11-01T06:18:21.095Z,16.50
2018-11-01T06:20:49.568Z,16.67
2018-11-01T06:23:17.903Z,16.00
2018-11-01T06:25:46.297Z,17.23
2018-11-01T06:28:14.686Z,17.07
2018-11-01T06:30:43.050Z,17.03
2018-11-01T06:33:11.478Z,17.40
2018-11-01T06:35:48.643Z,16.33
2018-11-01T06:38:17.105Z,16.60
2018-11-01T06:40:45.484Z,16.97
2018-11-01T06:43:13.891Z,16.67
2018-11-01T06:45:42.264Z,17.70
2018-11-01T06:48:10.663Z,17.27
2018-11-01T06:50:39.038Z,18.53
2018-11-01T06:53:07.445Z,17.70
2018-11-01T06:55:35.822Z,17.80
2018-11-01T06:58:04.223Z,17.73
2018-11-01T07:00:32.623Z,18.70
2018-11-01T07:03:01.039Z,20.20
2018-11-01T07:05:29.456Z,20.00
2018-11-01T07:07:57.863Z,20.97
2018-11-01T07:10:26.240Z,19.30
2018-11-01T07:12:54.649Z,21.20
2018-11-01T07:15:23.026Z,22.17
2018-11-01T07:17:51.417Z,20.97
2018-11-01T07:20:19.794Z,20.07
2018-11-01T07:22:48.182Z,19.87
2018-11-01T07:25:17.518Z,17.83
2018-11-01T07:27:45.876Z,18.17
2018-11-01T07:30:18.217Z,16.27
2018-11-01T07:32:46.845Z,15.97
2018-11-01T07:35:15.674Z,17.57
2018-11-01T07:37:44.607Z,18.80
2018-11-01T07:40:14.401Z,18.90
2018-11-01T07:42:42.859Z,17.53
2018-11-01T07:45:12.188Z,19.33
2018-11-01T07:47:41.498Z,18.57
2018-11-01T07:50:10.778Z,19.37
2018-11-01T07:52:39.753Z,17.50
2018-11-01T07:55:09.894Z,18.50
2018-11-01T07:57:38.299Z,18.33
2018-11-01T08:00:09.926Z,19.20
2018-11-01T08:02:38.361Z,18.40
2018-11-01T08:05:07.817Z,19.30
2018-11-01T08:07:36.217Z,17.57
2018-11-01T08:10:05.648Z,19.10
2018-11-01T08:12:34.051Z,21.40
2018-11-01T08:15:02.435Z,25.17
2018-11-01T08:17:30.805Z,20.90
2018-11-01T08:19:59.483Z,20.47
2018-11-01T08:22:27.707Z,20.63
2018-11-01T08:24:56.102Z,18.93
2018-11-01T08:27:24.473Z,18.63
2018-11-01T08:29:53.866Z,21.60
2018-11-01T08:32:22.257Z,20.80
2018-11-01T08:34:50.651Z,22.90
2018-11-01T08:37:19.031Z,25.13
2018-11-01T08:39:47.465Z,24.00
2018-11-01T08:42:15.851Z,21.80
2018-11-01T08:44:44.237Z,21.80
2018-11-01T08:47:12.619Z,19.50
2018-11-01T08:49:41.023Z,18.43
2018-11-01T08:52:09.403Z,20.67
2018-11-01T08:54:37.806Z,21.67
2018-11-01T08:57:06.475Z,22.60
2018-11-01T08:59:34.871Z,22.30
2018-11-01T09:02:03.289Z,23.40
2018-11-01T09:04:31.933Z,21.13
2018-11-01T09:07:00.315Z,19.03
2018-11-01T09:09:28.714Z,19.47
2018-11-01T09:11:57.098Z,18.90
2018-11-01T09:14:25.567Z,19.83
2018-11-01T09:16:53.907Z,20.40
2018-11-01T09:19:22.322Z,20.80
2018-11-01T09:21:50.715Z,21.70
2018-11-01T09:24:19.127Z,22.20
2018-11-01T09:26:47.571Z,22.20
2018-11-01T09:29:15.934Z,19.33
2018-11-01T09:31:44.312Z,21.87
2018-11-01T09:34:12.731Z,20.03
2018-11-01T09:36:41.100Z,19.73
2018-11-01T09:39:11.283Z,22.20
2018-11-01T09:41:39.653Z,22.30
2018-11-01T09:44:08.425Z,21.23
2018-11-01T09:46:37.228Z,24.93
2018-11-01T09:49:05.353Z,21.53
2018-11-01T09:51:33.752Z,23.33
2018-11-01T09:54:02.150Z,29.87
2018-11-01T09:56:30.714Z,42.37
2018-11-01T09:58:59.072Z,23.27
2018-11-01T10:01:27.449Z,23.53
2018-11-01T10:03:55.863Z,22.43
2018-11-01T10:06:24.235Z,22.97
2018-11-01T10:08:54.257Z,25.83
2018-11-01T10:11:22.740Z,25.50
2018-11-01T10:13:51.106Z,24.80
2018-11-01T10:16:19.603Z,25.83
2018-11-01T10:18:47.982Z,24.37
2018-11-01T10:21:16.385Z,25.67
2018-11-01T10:23:44.793Z,22.77
2018-11-01T10:26:13.223Z,24.63
2018-11-01T10:28:41.600Z,25.10
2018-11-01T10:31:10.086Z,24.00
2018-11-01T10:33:38.502Z,25.80
2018-11-01T10:36:06.963Z,25.67
2018-11-01T10:38:35.339Z,25.27
2018-11-01T10:41:03.740Z,25.93
2018-11-01T10:43:32.114Z,26.03
2018-11-01T10:46:00.523Z,26.23
2018-11-01T10:48:28.902Z,24.00
2018-11-01T10:50:57.294Z,27.33
2018-11-01T10:53:25.674Z,27.10
2018-11-01T10:55:54.075Z,24.40
2018-11-01T10:58:22.465Z,26.37
2018-11-01T11:00:56.456Z,27.87
2018-11-01T11:03:24.683Z,30.37
2018-11-01T11:05:53.092Z,25.43
2018-11-01T11:08:21.470Z,30.97
2018-11-01T11:10:49.882Z,29.90
2018-11-01T11:13:18.255Z,25.67
2018-11-01T11:15:46.685Z,25.73
2018-11-01T11:18:15.068Z,24.10
2018-11-01T11:20:43.682Z,25.07
2018-11-01T11:23:11.873Z,27.67
2018-11-01T11:25:40.282Z,29.50
2018-11-01T11:28:08.694Z,29.80
2018-11-01T11:30:37.122Z,28.93
2018-11-01T11:33:05.773Z,28.73
2018-11-01T11:35:34.218Z,25.57
2018-11-01T11:38:02.591Z,28.23
2018-11-01T11:40:31.002Z,26.87
2018-11-01T11:42:59.383Z,32.00
2018-11-01T11:45:27.782Z,32.17
2018-11-01T11:47:56.182Z,30.87
2018-11-01T11:50:24.567Z,31.10
2018-11-01T11:52:52.995Z,30.60
2018-11-01T11:55:21.379Z,30.23
2018-11-01T11:57:49.781Z,30.60
2018-11-01T12:00:18.159Z,31.17
2018-11-01T12:02:46.831Z,31.23
2018-11-01T12:05:15.250Z,32.50
2018-11-01T12:07:43.637Z,31.63
2018-11-01T12:10:13.598Z,31.73
2018-11-01T12:12:42.256Z,31.40
2018-11-01T12:15:10.657Z,31.17
2018-11-01T12:17:39.263Z,29.30
2018-11-01T12:20:09.458Z,30.33
2018-11-01T12:22:37.866Z,31.87
2018-11-01T12:25:06.919Z,31.87
2018-11-01T12:27:35.345Z,29.03
2018-11-01T12:30:03.937Z,28.00
2018-11-01T12:32:32.362Z,30.77
2018-11-01T12:35:01.121Z,30.50
2018-11-01T12:37:29.738Z,30.47
2018-11-01T12:39:58.167Z,31.27
2018-11-01T12:42:26.548Z,31.10
2018-11-01T12:44:54.955Z,25.57
2018-11-01T12:47:23.325Z,29.90
2018-11-01T12:49:51.757Z,29.20
2018-11-01T12:52:20.146Z,29.20
2018-11-01T12:54:48.548Z,27.60
2018-11-01T12:57:16.923Z,30.10
2018-11-01T12:59:45.317Z,30.90
2018-11-01T13:02:13.707Z,31.20
2018-11-01T13:04:42.101Z,31.80
2018-11-01T13:07:10.495Z,29.63
2018-11-01T13:09:38.894Z,30.30
2018-11-01T13:12:07.266Z,31.73
2018-11-01T13:14:35.662Z,32.27
2018-11-01T13:17:04.041Z,29.03
2018-11-01T13:19:32.438Z,27.33
2018-11-01T13:22:00.825Z,29.60
2018-11-01T13:24:29.230Z,28.33
2018-11-01T13:26:57.602Z,28.57
2018-11-01T13:29:26.092Z,30.00
2018-11-01T13:31:54.566Z,28.70
2018-11-01T13:34:22.979Z,28.57
2018-11-01T13:36:51.390Z,30.13
2018-11-01T13:39:19.895Z,31.37
2018-11-01T13:41:48.301Z,30.40
2018-11-01T13:44:17.350Z,30.40
2018-11-01T13:46:45.951Z,31.00
2018-11-01T13:49:14.334Z,32.37
2018-11-01T13:51:42.793Z,31.37
2018-11-01T13:54:11.263Z,30.00
2018-11-01T13:56:39.774Z,29.53
2018-11-01T13:59:08.224Z,31.37
2018-11-01T14:01:36.610Z,32.37
2018-11-01T14:04:05.674Z,30.70
2018-11-01T14:06:34.062Z,30.27
2018-11-01T14:09:02.488Z,31.23
2018-11-01T14:11:30.890Z,30.77
2018-11-01T14:13:59.504Z,29.57
2018-11-01T14:16:27.699Z,33.47
2018-11-01T14:18:56.103Z,32.50
2018-11-01T14:21:24.478Z,30.50
2018-11-01T14:23:52.885Z,33.70
2018-11-01T14:26:21.275Z,33.00
2018-11-01T14:28:49.679Z,32.73
2018-11-01T14:31:18.221Z,33.00
2018-11-01T14:33:46.531Z,32.20
2018-11-01T14:36:15.159Z,33.37
2018-11-01T14:38:43.563Z,31.67
2018-11-01T14:41:11.960Z,32.87
2018-11-01T14:43:40.383Z,35.43
2018-11-01T14:46:08.766Z,33.10
2018-11-01T14:48:37.155Z,34.80
2018-11-01T14:51:05.590Z,33.93
2018-11-01T14:53:34.470Z,30.93
2018-11-01T14:56:03.611Z,32.00
2018-11-01T14:58:32.140Z,32.37
2018-11-01T15:00:59.298Z,33.30
2018-11-01T15:03:27.670Z,34.13
2018-11-01T15:05:56.067Z,33.87
2018-11-01T15:08:24.443Z,31.50
2018-11-01T15:10:52.853Z,33.00
2018-11-01T15:13:21.384Z,31.57
2018-11-01T15:15:49.659Z,31.90
2018-11-01T15:18:18.050Z,33.50
2018-11-01T15:20:46.460Z,30.80
2018-11-01T15:23:14.839Z,32.97
2018-11-01T15:25:43.230Z,31.50
2018-11-01T15:28:11.612Z,34.30
2018-11-01T15:30:40.002Z,31.30
2018-11-01T15:33:08.408Z,33.30
2018-11-01T15:35:36.811Z,32.80
2018-11-01T15:38:05.385Z,35.27
2018-11-01T15:40:33.791Z,35.23
2018-11-01T15:43:02.172Z,36.40
2018-11-01T15:45:30.685Z,34.40
2018-11-01T15:47:59.067Z,34.00
2018-11-01T15:50:27.511Z,35.70
2018-11-01T15:52:55.894Z,34.63
2018-11-01T15:55:24.296Z,35.77
2018-11-01T15:57:52.698Z,32.63
2018-11-01T16:00:21.108Z,31.00
2018-11-01T16:02:49.490Z,35.57
2018-11-01T16:05:17.900Z,38.97
2018-11-01T16:07:46.511Z,36.53
2018-11-01T16:10:15.039Z,39.73
2018-11-01T16:12:43.334Z,39.17
2018-11-01T16:15:14.331Z,36.60
2018-11-01T16:17:42.758Z,37.40
2018-11-01T16:20:11.221Z,37.57
2018-11-01T16:22:40.281Z,38.60
2018-11-01T16:25:08.691Z,38.40
2018-11-01T16:27:37.462Z,39.60
2018-11-01T16:30:06.551Z,39.60
2018-11-01T16:32:34.958Z,38.17
2018-11-01T16:35:03.387Z,39.30
2018-11-01T16:37:31.765Z,37.10
2018-11-01T16:40:00.408Z,36.47
2018-11-01T16:42:29.133Z,40.47
2018-11-01T16:44:57.483Z,39.23
2018-11-01T16:47:25.818Z,38.53
2018-11-01T16:49:54.440Z,37.93
2018-11-01T16:52:22.851Z,41.63
2018-11-01T16:54:51.267Z,28.43
2018-11-01T16:57:19.645Z,36.27
2018-11-01T16:59:48.064Z,40.50
2018-11-01T17:02:16.454Z,38.07
2018-11-01T17:04:44.866Z,37.30
2018-11-01T17:07:13.274Z,40.00
2018-11-01T17:09:41.680Z,39.50
2018-11-01T17:12:10.094Z,35.80
2018-11-01T17:14:38.502Z,36.40
2018-11-01T17:17:06.906Z,40.53
2018-11-01T17:19:35.291Z,39.07
2018-11-01T17:22:03.883Z,36.50
2018-11-01T17:24:32.274Z,39.90
2018-11-01T17:27:00.686Z,37.07
2018-11-01T17:29:29.160Z,42.67
2018-11-01T17:31:57.575Z,42.10
2018-11-01T17:34:26.022Z,37.90
2018-11-01T17:36:54.410Z,43.77
2018-11-01T17:39:22.907Z,40.20
2018-11-01T17:41:51.323Z,43.10
2018-11-01T17:44:19.703Z,42.07
2018-11-01T17:46:48.108Z,42.00
2018-11-01T17:49:16.486Z,44.63
2018-11-01T17:51:44.943Z,45.53
2018-11-01T17:54:14.841Z,46.00
2018-11-01T17:56:44.062Z,40.60
2018-11-01T17:59:12.454Z,41.50
2018-11-01T18:01:40.890Z,39.87
2018-11-01T18:04:09.894Z,42.87
2018-11-01T18:06:38.565Z,39.10
2018-11-01T18:09:09.221Z,36.47
2018-11-01T18:11:37.640Z,41.60
2018-11-01T18:14:06.198Z,45.03
2018-11-01T18:16:34.786Z,47.30
2018-11-01T18:19:03.159Z,49.07
2018-11-01T18:21:31.590Z,52.37
2018-11-01T18:23:59.986Z,56.37
2018-11-01T18:26:28.403Z,55.97
2018-11-01T18:28:56.815Z,61.90
2018-11-01T18:31:25.269Z,58.47
2018-11-01T18:33:53.658Z,56.23
2018-11-01T18:36:22.078Z,59.37
2018-11-01T18:38:50.459Z,61.17
2018-11-01T18:41:18.872Z,52.97
2018-11-01T18:43:47.259Z,51.80
2018-11-01T18:46:15.666Z,55.23
2018-11-01T18:48:44.418Z,48.67
2018-11-01T18:51:12.867Z,47.90
2018-11-01T18:53:41.245Z,43.03
2018-11-01T18:56:09.659Z,45.30
2018-11-01T18:58:38.140Z,44.40
2018-11-01T19:01:06.561Z,40.83
2018-11-01T19:03:34.971Z,39.50
2018-11-01T19:06:03.918Z,39.03
2018-11-01T19:08:32.327Z,36.40
2018-11-01T19:11:00.751Z,40.90
2018-11-01T19:13:29.172Z,38.63
2018-11-01T19:15:57.568Z,39.80
2018-11-01T19:18:25.968Z,41.47
2018-11-01T19:20:54.378Z,42.80
2018-11-01T19:23:22.764Z,46.00
2018-11-01T19:25:51.217Z,48.33
2018-11-01T19:28:19.615Z,48.17
2018-11-01T19:30:47.999Z,39.23
2018-11-01T19:33:16.638Z,40.03
2018-11-01T19:35:45.012Z,37.97
2018-11-01T19:38:13.434Z,39.97
2018-11-01T19:40:41.835Z,38.47
2018-11-01T19:43:10.238Z,37.20
2018-11-01T19:45:38.651Z,44.27
2018-11-01T19:48:07.148Z,45.60
2018-11-01T19:50:35.590Z,44.67
2018-11-01T19:53:04.004Z,40.97
2018-11-01T19:55:32.410Z,38.80
2018-11-01T19:58:00.827Z,43.20
2018-11-01T20:00:29.230Z,36.27
2018-11-01T20:02:57.638Z,40.67
2018-11-01T20:05:26.027Z,39.10
2018-11-01T20:07:54.433Z,36.50
2018-11-01T20:10:22.885Z,40.97
2018-11-01T20:12:51.271Z,43.33
2018-11-01T20:15:19.659Z,45.03
2018-11-01T20:17:48.074Z,58.60
2018-11-01T20:20:16.458Z,52.97
2018-11-01T20:22:45.730Z,43.23
2018-11-01T20:25:14.295Z,39.47
2018-11-01T20:27:42.816Z,43.77
2018-11-01T20:30:13.195Z,47.20
2018-11-01T20:32:42.334Z,49.00
2018-11-01T20:35:12.224Z,56.33
2018-11-01T20:37:40.928Z,56.53
2018-11-01T20:40:09.339Z,48.17
2018-11-01T20:42:37.781Z,41.17
2018-11-01T20:45:07.474Z,43.07
2018-11-01T20:47:36.094Z,36.47
2018-11-01T20:50:04.888Z,39.87
2018-11-01T20:52:33.352Z,37.80
2018-11-01T20:55:01.775Z,38.40
2018-11-01T20:57:30.245Z,40.10
2018-11-01T20:59:58.607Z,39.57
2018-11-01T21:02:27.094Z,37.20
2018-11-01T21:04:55.744Z,34.83
2018-11-01T21:07:24.250Z,33.20
2018-11-01T21:09:52.687Z,32.40
2018-11-01T21:12:21.095Z,32.33
2018-11-01T21:14:49.482Z,34.07
2018-11-01T21:17:17.924Z,31.17
2018-11-01T21:19:46.411Z,33.30
2018-11-01T21:22:15.551Z,29.07
2018-11-01T21:24:44.206Z,28.73
2018-11-01T21:27:12.611Z,27.40
2018-11-01T21:29:41.051Z,26.97
2018-11-01T21:32:09.892Z,24.50
2018-11-01T21:34:38.642Z,23.37
2018-11-01T21:37:07.360Z,22.40
2018-11-01T21:39:35.768Z,23.37
2018-11-01T21:42:04.373Z,21.23
2018-11-01T21:44:32.800Z,20.67
2018-11-01T21:47:01.353Z,19.73
2018-11-01T21:49:29.738Z,20.30
2018-11-01T21:51:58.178Z,19.33
2018-11-01T21:54:26.582Z,19.60
2018-11-01T21:56:54.959Z,18.23
2018-11-01T21:59:23.366Z,19.40
2018-11-01T22:01:51.778Z,18.67
2018-11-01T22:04:20.190Z,19.30
2018-11-01T22:06:48.574Z,21.67
2018-11-01T22:09:16.977Z,19.17
2018-11-01T22:11:45.374Z,20.80
2018-11-01T22:14:13.805Z,19.70
2018-11-01T22:16:42.186Z,19.23
2018-11-01T22:19:10.610Z,19.80
2018-11-01T22:21:39.011Z,20.87
2018-11-01T22:24:07.414Z,21.20
2018-11-01T22:26:35.954Z,20.20
2018-11-01T22:29:04.367Z,20.40
2018-11-01T22:31:32.752Z,22.47
2018-11-01T22:34:01.168Z,21.63
2018-11-01T22:36:29.562Z,21.23
2018-11-01T22:38:57.980Z,19.60
2018-11-01T22:41:26.367Z,20.40
2018-11-01T22:43:54.783Z,19.63
2018-11-01T22:46:23.158Z,20.50
2018-11-01T22:48:51.572Z,21.43
2018-11-01T22:51:19.974Z,21.23
2018-11-01T22:53:48.458Z,20.70
2018-11-01T22:56:16.786Z,20.30
2018-11-01T22:58:45.219Z,21.03
2018-11-01T23:01:13.607Z,22.47
2018-11-01T23:03:42.051Z,21.87
2018-11-01T23:06:10.422Z,22.53
2018-11-01T23:08:38.831Z,19.90
2018-11-01T23:11:07.221Z,24.47
2018-11-01T23:13:35.631Z,21.13
2018-11-01T23:16:03.997Z,21.40
2018-11-01T23:18:32.398Z,20.43
2018-11-01T23:21:00.770Z,20.57
2018-11-01T23:23:29.175Z,22.10
2018-11-01T23:25:57.578Z,20.40
2018-11-01T23:28:25.998Z,20.30
2018-11-01T23:30:54.384Z,21.33
2018-11-01T23:33:22.786Z,21.70
2018-11-01T23:35:51.187Z,21.57
2018-11-01T23:38:24.895Z,23.10
2018-11-01T23:40:58.685Z,21.87
2018-11-01T23:43:32.518Z,22.97
2018-11-01T23:46:06.314Z,22.40
2018-11-01T23:48:33.899Z,21.37
2018-11-01T23:51:07.087Z,20.93
2018-11-01T23:53:39.078Z,21.87
2018-11-01T23:56:07.462Z,21.53
2018-11-01T23:58:35.868Z,20.57
